Helene — V2BK5 — position and weather

sailwx.info

Track history (hours):
 
Tides and Currents Weather Stations Pressure Air Temp Water Temp Dewpoint Dewpoint Depression Visibility Wind Speed Wind Dir Waves Ship Positions

Helene

Last reported at 2015-Sep-20 18:33 UTC. Time now 2016-May-01 11:45 UTC.
Position N 35°48' E 014°47'.
Warning: this ship's position is months out of date.

Length 140 m; draft 6.8 m.

Type: Cargo ship. MMSI: 304846000.

Date/timePositionNaut miles runAvg speedWind from/ knotsBaromVisibWave heightAir tempDewpointWater temp
2015-Sep-20 18:33N 35°48' E 014°47'1111.2
2015-Sep-20 17:32N 35°49' E 014°34'1 0.9
2015-Sep-20 16:25N 35°49' E 014°32'0 0.0
2015-Sep-20 15:31N 35°49' E 014°32'0 0.0
2015-Sep-20 14:25N 35°49' E 014°32'0 0.0
2015-Sep-20 13:28N 35°49' E 014°32'0 0.0
2015-Sep-20 12:31N 35°49' E 014°32'0 0.0
2015-Sep-20 11:10N 35°49' E 014°32'0 0.0
2015-Sep-20 10:31N 35°49' E 014°32'0 0.0
2015-Sep-20 09:31N 35°49' E 014°32'0 0.0
2015-Sep-20 08:28N 35°49' E 014°32'0 0.0
2015-Sep-20 06:18N 35°49' E 014°32'2 3.0
2015-Sep-20 05:33N 35°48' E 014°35'5 5.0
2015-Sep-20 04:32N 35°44' E 014°38'4 2.1
2015-Sep-20 02:33N 35°42' E 014°34'10 9.9
2015-Sep-20 01:34N 35°44' E 014°22'1111.3
2015-Sep-20 00:33N 35°51' E 014°11'1111.4
2015-Sep-19 23:33N 35°57' E 013°59'1211.8
2015-Sep-19 22:33N 36°03' E 013°46'1212.0
2015-Sep-19 21:33N 36°10' E 013°34'1211.6
2015-Sep-19 20:33N 36°16' E 013°22'1111.5
2015-Sep-19 19:33N 36°22' E 013°10'1211.5
2015-Sep-19 18:33N 36°28' E 012°58'1111.4
2015-Sep-19 17:33N 36°34' E 012°46'1111.2
2015-Sep-19 16:33N 36°40' E 012°34'4610.8
2015-Sep-19 12:17N 37°05' E 011°45'911.0
2015-Sep-19 11:26N 37°10' E 011°35'1111.1
2015-Sep-19 10:28N 37°16' E 011°24'1110.9
2015-Sep-19 09:29N 37°21' E 011°13'2211.2
2015-Sep-19 07:33N 37°28' E 010°46'1211.5
2015-Sep-19 06:31N 37°31' E 010°32'1211.5
2015-Sep-19 05:27N 37°34' E 010°17'348 7.3
2015-Sep-17 05:33N 36°46' E 003°04'0 0.0
2015-Sep-17 02:33N 36°46' E 003°04'0 0.0
2015-Sep-17 01:33N 36°46' E 003°04'0 0.0
2015-Sep-15 02:34N 36°46' E 003°04'0 0.0
2015-Sep-15 01:22N 36°46' E 003°04'0 0.0
2015-Sep-14 01:07N 36°46' E 003°04'0 0.0
2015-Sep-13 22:07N 36°46' E 003°04'0 0.0
2015-Sep-13 19:34N 36°46' E 003°04'48 1.3
2015-Sep-12 05:34N 37°04' E 003°59'1111.0
2015-Sep-12 04:32N 37°06' E 004°13'1110.6
2015-Sep-12 03:28N 37°07' E 004°27'3311.1
2015-Sep-12 00:32N 37°12' E 005°08'1111.5
2015-Sep-11 23:33N 37°13' E 005°22'1311.4
2015-Sep-11 22:23N 37°15' E 005°38'911.2
2015-Sep-11 21:33N 37°16' E 005°50'18011.1
2015-Sep-11 05:19N 37°38' E 009°35'  
Track history (hours):
 
Tides and Currents Weather Stations Pressure Air Temp Water Temp Dewpoint Dewpoint Depression Visibility Wind Speed Wind Dir Waves Ship Positions

Helene

Last reported at 2015-Sep-20 18:33 UTC. Time now 2016-May-01 11:45 UTC.
Position N 35°48' E 014°47'.
Warning: this ship's position is months out of date.

Length 140 m; draft 6.8 m.

Type: Cargo ship. MMSI: 304846000.

Date/timePositionNaut miles runAvg speedWind from/ knotsBaromVisibWave heightAir tempDewpointWater temp
2015-Sep-20 18:33N 35°48' E 014°47'1111.2
2015-Sep-20 17:32N 35°49' E 014°34'1 0.9
2015-Sep-20 16:25N 35°49' E 014°32'0 0.0
2015-Sep-20 15:31N 35°49' E 014°32'0 0.0
2015-Sep-20 14:25N 35°49' E 014°32'0 0.0
2015-Sep-20 13:28N 35°49' E 014°32'0 0.0
2015-Sep-20 12:31N 35°49' E 014°32'0 0.0
2015-Sep-20 11:10N 35°49' E 014°32'0 0.0
2015-Sep-20 10:31N 35°49' E 014°32'0 0.0
2015-Sep-20 09:31N 35°49' E 014°32'0 0.0
2015-Sep-20 08:28N 35°49' E 014°32'0 0.0
2015-Sep-20 06:18N 35°49' E 014°32'2 3.0
2015-Sep-20 05:33N 35°48' E 014°35'5 5.0
2015-Sep-20 04:32N 35°44' E 014°38'4 2.1
2015-Sep-20 02:33N 35°42' E 014°34'10 9.9
2015-Sep-20 01:34N 35°44' E 014°22'1111.3
2015-Sep-20 00:33N 35°51' E 014°11'1111.4
2015-Sep-19 23:33N 35°57' E 013°59'1211.8
2015-Sep-19 22:33N 36°03' E 013°46'1212.0
2015-Sep-19 21:33N 36°10' E 013°34'1211.6
2015-Sep-19 20:33N 36°16' E 013°22'1111.5
2015-Sep-19 19:33N 36°22' E 013°10'1211.5
2015-Sep-19 18:33N 36°28' E 012°58'1111.4
2015-Sep-19 17:33N 36°34' E 012°46'1111.2
2015-Sep-19 16:33N 36°40' E 012°34'4610.8
2015-Sep-19 12:17N 37°05' E 011°45'911.0
2015-Sep-19 11:26N 37°10' E 011°35'1111.1
2015-Sep-19 10:28N 37°16' E 011°24'1110.9
2015-Sep-19 09:29N 37°21' E 011°13'2211.2
2015-Sep-19 07:33N 37°28' E 010°46'1211.5
2015-Sep-19 06:31N 37°31' E 010°32'1211.5
2015-Sep-19 05:27N 37°34' E 010°17'348 7.3
2015-Sep-17 05:33N 36°46' E 003°04'0 0.0
2015-Sep-17 02:33N 36°46' E 003°04'0 0.0
2015-Sep-17 01:33N 36°46' E 003°04'0 0.0
2015-Sep-15 02:34N 36°46' E 003°04'0 0.0
2015-Sep-15 01:22N 36°46' E 003°04'0 0.0
2015-Sep-14 01:07N 36°46' E 003°04'0 0.0
2015-Sep-13 22:07N 36°46' E 003°04'0 0.0
2015-Sep-13 19:34N 36°46' E 003°04'48 1.3
2015-Sep-12 05:34N 37°04' E 003°59'1111.0
2015-Sep-12 04:32N 37°06' E 004°13'1110.6
2015-Sep-12 03:28N 37°07' E 004°27'3311.1
2015-Sep-12 00:32N 37°12' E 005°08'1111.5
2015-Sep-11 23:33N 37°13' E 005°22'1311.4
2015-Sep-11 22:23N 37°15' E 005°38'911.2
2015-Sep-11 21:33N 37°16' E 005°50'18011.1
2015-Sep-11 05:19N 37°38' E 009°35'  

Dump ship's entire track history